F/vphalene — FHLG — position and weather

sailwx.info

Track history (hours):
 
Tides and Currents Weather Stations Pressure Air Temp Water Temp Dewpoint Dewpoint Depression Visibility Wind Speed Wind Dir Waves Ship Positions

F/vphalene

Last reported at 2018-Jun-19 03:00 UTC. Time now 2018-Jun-19 03:03 UTC.
Position N 47°23' W 003°44'.

Length 14 m; draft 4 m.

Type: Fishing. MMSI: 228313000.

Date/timePositionNaut miles runAvg speedWind from/ knotsBaromVisibWave heightAir tempDewpointWater temp
2018-Jun-19 03:00N 47°23' W 003°44'3 6.3
2018-Jun-19 02:30N 47°25' W 003°40'4 8.7
2018-Jun-19 02:01N 47°28' W 003°36'4 9.0
2018-Jun-19 01:31N 47°31' W 003°31'5 9.1
2018-Jun-19 01:01N 47°34' W 003°27'5 9.1
2018-Jun-19 00:30N 47°38' W 003°23'5 9.3
2018-Jun-19 00:01N 47°43' W 003°22'1 1.8
2018-Jun-18 23:31N 47°44' W 003°22'3 6.7
2018-Jun-18 23:01N 47°41' W 003°25'4 8.6
2018-Jun-18 22:30N 47°40' W 003°31'4 8.2
2018-Jun-18 22:00N 47°36' W 003°34'4 8.5
2018-Jun-18 21:30N 47°33' W 003°38'4 8.6
2018-Jun-18 21:00N 47°29' W 003°41'2 5.0
2018-Jun-18 20:30N 47°27' W 003°44'2 3.4
2018-Jun-18 20:00N 47°26' W 003°45'2 3.6
2018-Jun-18 19:30N 47°24' W 003°47'4 3.7
2018-Jun-18 18:19N 47°20' W 003°49'1 3.8
2018-Jun-18 18:00N 47°19' W 003°49'5 2.5
2018-Jun-18 15:49N 47°14' W 003°53'0 0.1
2018-Jun-18 12:26N 47°14' W 003°53'2 2.4
2018-Jun-18 11:38N 47°13' W 003°52'2 2.0
2018-Jun-18 10:44N 47°14' W 003°53'1 3.7
2018-Jun-18 10:28N 47°14' W 003°51'1 2.0
2018-Jun-18 09:47N 47°13' W 003°52'2 2.5
2018-Jun-18 09:00N 47°14' W 003°54'2 3.3
2018-Jun-18 08:31N 47°14' W 003°51'2 3.1
2018-Jun-18 08:00N 47°13' W 003°52'14 3.3
2018-Jun-18 03:50N 47°26' W 003°55'11 6.1
2018-Jun-18 02:05N 47°33' W 003°43'7 8.4
2018-Jun-18 01:18N 47°37' W 003°35'2 8.4
2018-Jun-18 01:00N 47°39' W 003°32'4 8.2
2018-Jun-18 00:30N 47°41' W 003°27'4 8.0
2018-Jun-18 00:00N 47°43' W 003°22'0 0.0
2018-Jun-16 03:12N 47°43' W 003°21'0 0.0
2018-Jun-16 03:00N 47°43' W 003°21'1 1.5
2018-Jun-16 02:30N 47°43' W 003°22'0 1.0
2018-Jun-16 02:00N 47°44' W 003°22'0 0.0
2018-Jun-16 01:30N 47°44' W 003°22'0 0.3
2018-Jun-16 01:00N 47°44' W 003°22'0 0.0
2018-Jun-16 00:27N 47°44' W 003°22'3 7.1
2018-Jun-16 00:00N 47°41' W 003°24'4 8.7
2018-Jun-15 23:30N 47°40' W 003°30'4 8.3
2018-Jun-15 23:00N 47°37' W 003°36'4 8.2
2018-Jun-15 22:30N 47°35' W 003°41'4 8.2
2018-Jun-15 22:00N 47°33' W 003°46'12 0.6
2018-Jun-15 02:58N 47°36' W 004°03'8 3.7
2018-Jun-15 00:45N 47°28' W 003°58'1 3.7
2018-Jun-15 00:25N 47°27' W 003°57'4 3.5
2018-Jun-14 23:22N 47°26' W 003°52'2 3.7
2018-Jun-14 22:52N 47°25' W 003°49'1 3.9
2018-Jun-14 22:30N 47°24' W 003°48'2 4.1
2018-Jun-14 22:00N 47°23' W 003°46'2 3.0
2018-Jun-14 21:27N 47°21' W 003°44'2 3.7
2018-Jun-14 20:59N 47°20' W 003°43'2 3.7
2018-Jun-14 20:29N 47°19' W 003°41'2 3.5
2018-Jun-14 20:00N 47°17' W 003°42'9 0.7
2018-Jun-14 07:54N 47°08' W 003°44'1 2.6
2018-Jun-14 07:29N 47°08' W 003°42'16 4.1
2018-Jun-14 03:27N 47°24' W 003°35'5 8.3
2018-Jun-14 02:51N 47°28' W 003°31'3 8.4
2018-Jun-14 02:30N 47°30' W 003°29'4 8.4
2018-Jun-14 02:00N 47°34' W 003°26'4 8.8
2018-Jun-14 01:30N 47°38' W 003°23'4 8.6
2018-Jun-14 01:00N 47°42' W 003°22'2 2.8
2018-Jun-14 00:26N 47°44' W 003°22'0 0.0
2018-Jun-13 23:58N 47°44' W 003°22'2 3.4
2018-Jun-13 23:30N 47°42' W 003°22'4 8.8
2018-Jun-13 23:00N 47°40' W 003°28'4 8.7
2018-Jun-13 22:30N 47°38' W 003°34'4 8.4
2018-Jun-13 22:00N 47°34' W 003°37'4 8.3
2018-Jun-13 21:30N 47°31' W 003°40'4 8.5
2018-Jun-13 21:00N 47°27' W 003°44'3 5.0
2018-Jun-13 20:24N 47°25' W 003°46'2 3.5
2018-Jun-13 19:55N 47°23' W 003°46'2 3.9
2018-Jun-13 19:27N 47°22' W 003°45'14 2.0
2018-Jun-13 12:34N 47°08' W 003°43'1 2.9
2018-Jun-13 12:05N 47°09' W 003°44'1 3.6
2018-Jun-13 11:41N 47°09' W 003°41'1 3.7
2018-Jun-13 11:25N 47°09' W 003°40'3 0.8
2018-Jun-13 08:05N 47°09' W 003°44'0 4.0
2018-Jun-13 08:00N 47°09' W 003°43'13 2.3
2018-Jun-13 02:17N 47°22' W 003°46'2 3.0
2018-Jun-13 01:39N 47°20' W 003°47'1 3.9
2018-Jun-13 01:30N 47°20' W 003°47'2 3.5
2018-Jun-13 00:53N 47°19' W 003°44'3 3.3
2018-Jun-12 23:55N 47°22' W 003°45'2 3.3
2018-Jun-12 23:26N 47°21' W 003°48'2 3.9
2018-Jun-12 22:55N 47°19' W 003°46'2 3.7
2018-Jun-12 22:30N 47°19' W 003°44'2 3.9
2018-Jun-12 22:00N 47°19' W 003°42'2 3.9
2018-Jun-12 21:30N 47°19' W 003°39'2 3.4
2018-Jun-12 21:00N 47°20' W 003°37'2 3.5
2018-Jun-12 20:31N 47°20' W 003°35'1 1.9
2018-Jun-12 20:00N 47°19' W 003°34'2 3.5
2018-Jun-12 19:30N 47°19' W 003°37'2 3.7
2018-Jun-12 19:00N 47°20' W 003°38'2 3.2
2018-Jun-12 18:30N 47°19' W 003°39'3 0.2
2018-Jun-12 03:12N 47°17' W 003°36'0 0.1
2018-Jun-12 02:54N 47°17' W 003°36'4 4.1
2018-Jun-12 01:59N 47°21' W 003°34'4 8.1
2018-Jun-12 01:28N 47°24' W 003°31'4 8.0
2018-Jun-12 01:00N 47°28' W 003°29'4 7.9
2018-Jun-12 00:30N 47°31' W 003°27'4 8.1
2018-Jun-12 00:00N 47°35' W 003°25'4 8.4
2018-Jun-11 23:30N 47°39' W 003°23'4 7.7
2018-Jun-11 23:00N 47°43' W 003°22'1 1.1
2018-Jun-11 22:31N 47°44' W 003°22'4 8.0
2018-Jun-11 22:00N 47°41' W 003°26'4 8.6
2018-Jun-11 21:30N 47°39' W 003°32'4 8.3
2018-Jun-11 21:00N 47°37' W 003°37'2 3.2
2018-Jun-11 20:30N 47°35' W 003°38'2 3.7
2018-Jun-11 20:00N 47°33' W 003°38'2 3.7
2018-Jun-11 19:30N 47°31' W 003°39'2 3.6
2018-Jun-11 19:01N 47°30' W 003°40'2 3.7
2018-Jun-11 18:30N 47°28' W 003°40'2 3.7
2018-Jun-11 18:00N 47°26' W 003°40'1 0.9
2018-Jun-11 17:09N 47°25' W 003°40'1 4.2
2018-Jun-11 17:00N 47°26' W 003°41'2 3.4
2018-Jun-11 16:27N 47°28' W 003°41'1 3.2
2018-Jun-11 16:00N 47°27' W 003°39'2 3.4
2018-Jun-11 15:30N 47°26' W 003°41'2 3.6
2018-Jun-11 14:59N 47°27' W 003°42'2 3.2
2018-Jun-11 14:30N 47°27' W 003°39'2 3.3
2018-Jun-11 14:00N 47°26' W 003°40'2 3.2
2018-Jun-11 13:20N 47°28' W 003°42'1 3.6
2018-Jun-11 13:01N 47°28' W 003°40'2 3.6
2018-Jun-11 12:30N 47°26' W 003°40'2 2.8
2018-Jun-11 11:47N 47°28' W 003°41'1 3.8
2018-Jun-11 11:30N 47°28' W 003°40'2 3.6
2018-Jun-11 11:00N 47°26' W 003°40'2 2.9
2018-Jun-11 10:11N 47°28' W 003°42'0 2.2
2018-Jun-11 10:00N 47°28' W 003°42'2 3.5
2018-Jun-11 09:30N 47°27' W 003°39'2 3.7
2018-Jun-11 09:00N 47°26' W 003°40'2 3.1
2018-Jun-11 08:16N 47°28' W 003°41'1 3.7
2018-Jun-11 08:01N 47°27' W 003°40'2 3.8
2018-Jun-11 07:30N 47°26' W 003°40'3 3.4
2018-Jun-11 06:45N 47°28' W 003°41'0 0.8
2018-Jun-11 06:30N 47°28' W 003°41'2 3.1
2018-Jun-11 06:00N 47°27' W 003°40'2 3.3
2018-Jun-11 05:30N 47°26' W 003°41'3 3.5
2018-Jun-11 04:33N 47°29' W 003°41'1 4.0
2018-Jun-11 04:20N 47°30' W 003°40'1 4.0
2018-Jun-11 04:00N 47°31' W 003°40'2 3.7
2018-Jun-11 03:30N 47°32' W 003°37'2 2.4
2018-Jun-11 02:38N 47°32' W 003°34'1 7.6
2018-Jun-11 02:31N 47°33' W 003°34'4 7.6
2018-Jun-11 02:00N 47°37' W 003°33'3 6.9
2018-Jun-11 01:30N 47°40' W 003°30'4 7.6
2018-Jun-11 01:01N 47°41' W 003°25'3 5.3
2018-Jun-11 00:28N 47°43' W 003°21'  
Track history (hours):
 
Tides and Currents Weather Stations Pressure Air Temp Water Temp Dewpoint Dewpoint Depression Visibility Wind Speed Wind Dir Waves Ship Positions

F/vphalene

Last reported at 2018-Jun-19 03:00 UTC. Time now 2018-Jun-19 03:03 UTC.
Position N 47°23' W 003°44'.

Length 14 m; draft 4 m.

Type: Fishing. MMSI: 228313000.

Date/timePositionNaut miles runAvg speedWind from/ knotsBaromVisibWave heightAir tempDewpointWater temp
2018-Jun-19 03:00N 47°23' W 003°44'3 6.3
2018-Jun-19 02:30N 47°25' W 003°40'4 8.7
2018-Jun-19 02:01N 47°28' W 003°36'4 9.0
2018-Jun-19 01:31N 47°31' W 003°31'5 9.1
2018-Jun-19 01:01N 47°34' W 003°27'5 9.1
2018-Jun-19 00:30N 47°38' W 003°23'5 9.3
2018-Jun-19 00:01N 47°43' W 003°22'1 1.8
2018-Jun-18 23:31N 47°44' W 003°22'3 6.7
2018-Jun-18 23:01N 47°41' W 003°25'4 8.6
2018-Jun-18 22:30N 47°40' W 003°31'4 8.2
2018-Jun-18 22:00N 47°36' W 003°34'4 8.5
2018-Jun-18 21:30N 47°33' W 003°38'4 8.6
2018-Jun-18 21:00N 47°29' W 003°41'2 5.0
2018-Jun-18 20:30N 47°27' W 003°44'2 3.4
2018-Jun-18 20:00N 47°26' W 003°45'2 3.6
2018-Jun-18 19:30N 47°24' W 003°47'4 3.7
2018-Jun-18 18:19N 47°20' W 003°49'1 3.8
2018-Jun-18 18:00N 47°19' W 003°49'5 2.5
2018-Jun-18 15:49N 47°14' W 003°53'0 0.1
2018-Jun-18 12:26N 47°14' W 003°53'2 2.4
2018-Jun-18 11:38N 47°13' W 003°52'2 2.0
2018-Jun-18 10:44N 47°14' W 003°53'1 3.7
2018-Jun-18 10:28N 47°14' W 003°51'1 2.0
2018-Jun-18 09:47N 47°13' W 003°52'2 2.5
2018-Jun-18 09:00N 47°14' W 003°54'2 3.3
2018-Jun-18 08:31N 47°14' W 003°51'2 3.1
2018-Jun-18 08:00N 47°13' W 003°52'14 3.3
2018-Jun-18 03:50N 47°26' W 003°55'11 6.1
2018-Jun-18 02:05N 47°33' W 003°43'7 8.4
2018-Jun-18 01:18N 47°37' W 003°35'2 8.4
2018-Jun-18 01:00N 47°39' W 003°32'4 8.2
2018-Jun-18 00:30N 47°41' W 003°27'4 8.0
2018-Jun-18 00:00N 47°43' W 003°22'0 0.0
2018-Jun-16 03:12N 47°43' W 003°21'0 0.0
2018-Jun-16 03:00N 47°43' W 003°21'1 1.5
2018-Jun-16 02:30N 47°43' W 003°22'0 1.0
2018-Jun-16 02:00N 47°44' W 003°22'0 0.0
2018-Jun-16 01:30N 47°44' W 003°22'0 0.3
2018-Jun-16 01:00N 47°44' W 003°22'0 0.0
2018-Jun-16 00:27N 47°44' W 003°22'3 7.1
2018-Jun-16 00:00N 47°41' W 003°24'4 8.7
2018-Jun-15 23:30N 47°40' W 003°30'4 8.3
2018-Jun-15 23:00N 47°37' W 003°36'4 8.2
2018-Jun-15 22:30N 47°35' W 003°41'4 8.2
2018-Jun-15 22:00N 47°33' W 003°46'12 0.6
2018-Jun-15 02:58N 47°36' W 004°03'8 3.7
2018-Jun-15 00:45N 47°28' W 003°58'1 3.7
2018-Jun-15 00:25N 47°27' W 003°57'4 3.5
2018-Jun-14 23:22N 47°26' W 003°52'2 3.7
2018-Jun-14 22:52N 47°25' W 003°49'1 3.9
2018-Jun-14 22:30N 47°24' W 003°48'2 4.1
2018-Jun-14 22:00N 47°23' W 003°46'2 3.0
2018-Jun-14 21:27N 47°21' W 003°44'2 3.7
2018-Jun-14 20:59N 47°20' W 003°43'2 3.7
2018-Jun-14 20:29N 47°19' W 003°41'2 3.5
2018-Jun-14 20:00N 47°17' W 003°42'9 0.7
2018-Jun-14 07:54N 47°08' W 003°44'1 2.6
2018-Jun-14 07:29N 47°08' W 003°42'16 4.1
2018-Jun-14 03:27N 47°24' W 003°35'5 8.3
2018-Jun-14 02:51N 47°28' W 003°31'3 8.4
2018-Jun-14 02:30N 47°30' W 003°29'4 8.4
2018-Jun-14 02:00N 47°34' W 003°26'4 8.8
2018-Jun-14 01:30N 47°38' W 003°23'4 8.6
2018-Jun-14 01:00N 47°42' W 003°22'2 2.8
2018-Jun-14 00:26N 47°44' W 003°22'0 0.0
2018-Jun-13 23:58N 47°44' W 003°22'2 3.4
2018-Jun-13 23:30N 47°42' W 003°22'4 8.8
2018-Jun-13 23:00N 47°40' W 003°28'4 8.7
2018-Jun-13 22:30N 47°38' W 003°34'4 8.4
2018-Jun-13 22:00N 47°34' W 003°37'4 8.3
2018-Jun-13 21:30N 47°31' W 003°40'4 8.5
2018-Jun-13 21:00N 47°27' W 003°44'3 5.0
2018-Jun-13 20:24N 47°25' W 003°46'2 3.5
2018-Jun-13 19:55N 47°23' W 003°46'2 3.9
2018-Jun-13 19:27N 47°22' W 003°45'14 2.0
2018-Jun-13 12:34N 47°08' W 003°43'1 2.9
2018-Jun-13 12:05N 47°09' W 003°44'1 3.6
2018-Jun-13 11:41N 47°09' W 003°41'1 3.7
2018-Jun-13 11:25N 47°09' W 003°40'3 0.8
2018-Jun-13 08:05N 47°09' W 003°44'0 4.0
2018-Jun-13 08:00N 47°09' W 003°43'13 2.3
2018-Jun-13 02:17N 47°22' W 003°46'2 3.0
2018-Jun-13 01:39N 47°20' W 003°47'1 3.9
2018-Jun-13 01:30N 47°20' W 003°47'2 3.5
2018-Jun-13 00:53N 47°19' W 003°44'3 3.3
2018-Jun-12 23:55N 47°22' W 003°45'2 3.3
2018-Jun-12 23:26N 47°21' W 003°48'2 3.9
2018-Jun-12 22:55N 47°19' W 003°46'2 3.7
2018-Jun-12 22:30N 47°19' W 003°44'2 3.9
2018-Jun-12 22:00N 47°19' W 003°42'2 3.9
2018-Jun-12 21:30N 47°19' W 003°39'2 3.4
2018-Jun-12 21:00N 47°20' W 003°37'2 3.5
2018-Jun-12 20:31N 47°20' W 003°35'1 1.9
2018-Jun-12 20:00N 47°19' W 003°34'2 3.5
2018-Jun-12 19:30N 47°19' W 003°37'2 3.7
2018-Jun-12 19:00N 47°20' W 003°38'2 3.2
2018-Jun-12 18:30N 47°19' W 003°39'3 0.2
2018-Jun-12 03:12N 47°17' W 003°36'0 0.1
2018-Jun-12 02:54N 47°17' W 003°36'4 4.1
2018-Jun-12 01:59N 47°21' W 003°34'4 8.1
2018-Jun-12 01:28N 47°24' W 003°31'4 8.0
2018-Jun-12 01:00N 47°28' W 003°29'4 7.9
2018-Jun-12 00:30N 47°31' W 003°27'4 8.1
2018-Jun-12 00:00N 47°35' W 003°25'4 8.4
2018-Jun-11 23:30N 47°39' W 003°23'4 7.7
2018-Jun-11 23:00N 47°43' W 003°22'1 1.1
2018-Jun-11 22:31N 47°44' W 003°22'4 8.0
2018-Jun-11 22:00N 47°41' W 003°26'4 8.6
2018-Jun-11 21:30N 47°39' W 003°32'4 8.3
2018-Jun-11 21:00N 47°37' W 003°37'2 3.2
2018-Jun-11 20:30N 47°35' W 003°38'2 3.7
2018-Jun-11 20:00N 47°33' W 003°38'2 3.7
2018-Jun-11 19:30N 47°31' W 003°39'2 3.6
2018-Jun-11 19:01N 47°30' W 003°40'2 3.7
2018-Jun-11 18:30N 47°28' W 003°40'2 3.7
2018-Jun-11 18:00N 47°26' W 003°40'1 0.9
2018-Jun-11 17:09N 47°25' W 003°40'1 4.2
2018-Jun-11 17:00N 47°26' W 003°41'2 3.4
2018-Jun-11 16:27N 47°28' W 003°41'1 3.2
2018-Jun-11 16:00N 47°27' W 003°39'2 3.4
2018-Jun-11 15:30N 47°26' W 003°41'2 3.6
2018-Jun-11 14:59N 47°27' W 003°42'2 3.2
2018-Jun-11 14:30N 47°27' W 003°39'2 3.3
2018-Jun-11 14:00N 47°26' W 003°40'2 3.2
2018-Jun-11 13:20N 47°28' W 003°42'1 3.6
2018-Jun-11 13:01N 47°28' W 003°40'2 3.6
2018-Jun-11 12:30N 47°26' W 003°40'2 2.8
2018-Jun-11 11:47N 47°28' W 003°41'1 3.8
2018-Jun-11 11:30N 47°28' W 003°40'2 3.6
2018-Jun-11 11:00N 47°26' W 003°40'2 2.9
2018-Jun-11 10:11N 47°28' W 003°42'0 2.2
2018-Jun-11 10:00N 47°28' W 003°42'2 3.5
2018-Jun-11 09:30N 47°27' W 003°39'2 3.7
2018-Jun-11 09:00N 47°26' W 003°40'2 3.1
2018-Jun-11 08:16N 47°28' W 003°41'1 3.7
2018-Jun-11 08:01N 47°27' W 003°40'2 3.8
2018-Jun-11 07:30N 47°26' W 003°40'3 3.4
2018-Jun-11 06:45N 47°28' W 003°41'0 0.8
2018-Jun-11 06:30N 47°28' W 003°41'2 3.1
2018-Jun-11 06:00N 47°27' W 003°40'2 3.3
2018-Jun-11 05:30N 47°26' W 003°41'3 3.5
2018-Jun-11 04:33N 47°29' W 003°41'1 4.0
2018-Jun-11 04:20N 47°30' W 003°40'1 4.0
2018-Jun-11 04:00N 47°31' W 003°40'2 3.7
2018-Jun-11 03:30N 47°32' W 003°37'2 2.4
2018-Jun-11 02:38N 47°32' W 003°34'1 7.6
2018-Jun-11 02:31N 47°33' W 003°34'4 7.6
2018-Jun-11 02:00N 47°37' W 003°33'3 6.9
2018-Jun-11 01:30N 47°40' W 003°30'4 7.6
2018-Jun-11 01:01N 47°41' W 003°25'3 5.3
2018-Jun-11 00:28N 47°43' W 003°21'  

Dump ship's entire track history